Time;durP1;ratioP1;P1;durP2;ratioP2;P2;SDS_P1;SDS_P2;PMS_P1;PMS_P2;Temp;Humidity;BMP_temperature;BMP_pressure;BME280_temperature;BME280_humidity;BME280_pressure;Samples;Min_cycle;Max_cycle;Signal;HPM_P1;HPM_P2
2022/12/31 00:00:06;;;;;;;2.97;1.60;;;;;;;5.77;77.02;100054.06;6209105;23;20031;-73
2022/12/31 00:02:33;;;;;;;2.05;1.33;;;;;;;5.88;76.57;100062.84;6213047;23;20020;-74
2022/12/31 00:04:59;;;;;;;3.05;1.35;;;;;;;5.76;77.01;100060.34;6212537;23;20023;-73
2022/12/31 00:07:27;;;;;;;2.50;1.70;;;;;;;5.75;76.76;100066.66;6211853;23;20095;-73
2022/12/31 00:09:53;;;;;;;3.95;1.77;;;;;;;5.88;76.87;100071.66;6211770;23;20020;-74
2022/12/31 00:12:19;;;;;;;3.90;2.53;;;;;;;5.83;76.55;100070.41;6213242;23;20029;-74
2022/12/31 00:14:46;;;;;;;3.58;1.70;;;;;;;5.93;76.90;100068.56;6213178;23;20350;-74
2022/12/31 00:17:13;;;;;;;2.17;1.38;;;;;;;5.98;76.36;100076.97;6203153;23;20059;-74
2022/12/31 00:19:39;;;;;;;3.15;1.73;;;;;;;5.97;76.05;100075.25;6211893;23;20021;-74
2022/12/31 00:22:06;;;;;;;6.15;2.53;;;;;;;6.05;76.08;100074.56;6211985;23;20400;-75
2022/12/31 00:24:34;;;;;;;2.60;1.45;;;;;;;5.89;76.23;100083.16;6212365;23;20095;-75
2022/12/31 00:27:01;;;;;;;2.55;1.50;;;;;;;5.94;76.36;100081.75;6212046;23;20039;-74
2022/12/31 00:29:27;;;;;;;2.30;1.25;;;;;;;5.90;76.20;100093.63;6210998;23;20025;-74
2022/12/31 00:31:54;;;;;;;1.88;1.38;;;;;;;6.08;75.94;100091.06;6212439;23;20099;-73
2022/12/31 00:34:21;;;;;;;2.92;1.35;;;;;;;5.98;76.35;100099.09;6210915;23;20020;-72
2022/12/31 00:36:47;;;;;;;3.83;1.38;;;;;;;5.99;76.67;100084.78;6213357;23;20047;-73
2022/12/31 00:39:14;;;;;;;2.03;1.30;;;;;;;6.04;76.58;100091.50;6212976;23;20027;-73
2022/12/31 00:41:42;;;;;;;1.95;1.13;;;;;;;5.95;76.60;100098.56;6213368;23;20047;-73
2022/12/31 00:44:12;;;;;;;2.40;1.10;;;;;;;5.99;76.20;100089.28;6211653;23;20048;-73
2022/12/31 00:46:39;;;;;;;2.22;1.42;;;;;;;5.92;76.59;100094.34;6212383;23;20020;-73
2022/12/31 00:49:05;;;;;;;1.98;1.13;;;;;;;5.83;76.78;100083.72;6212180;23;20027;-74
2022/12/31 00:51:32;;;;;;;2.65;1.45;;;;;;;5.76;76.67;100088.78;6212640;23;20090;-73
2022/12/31 00:53:59;;;;;;;1.73;1.23;;;;;;;5.88;76.69;100090.31;6207501;23;20040;-72
2022/12/31 00:56:28;;;;;;;1.98;1.30;;;;;;;5.95;76.79;100080.75;6203437;23;20358;-72
2022/12/31 00:58:54;;;;;;;1.80;1.23;;;;;;;6.00;76.54;100085.63;6212427;23;20089;-72
2022/12/31 01:01:25;;;;;;;3.28;1.27;;;;;;;5.89;76.99;100099.97;6212936;23;20084;-73
2022/12/31 01:03:56;;;;;;;1.90;1.10;;;;;;;5.93;77.24;100101.34;6209805;23;20358;-74
2022/12/31 01:06:23;;;;;;;1.83;1.02;;;;;;;6.06;76.87;100116.16;6210534;23;20099;-73
2022/12/31 01:08:50;;;;;;;1.58;0.98;;;;;;;5.94;76.66;100124.34;6208337;23;20417;-73
2022/12/31 01:11:18;;;;;;;2.08;1.20;;;;;;;5.97;77.06;100120.53;6211964;23;20044;-74
2022/12/31 01:13:46;;;;;;;1.77;1.10;;;;;;;6.18;76.78;100129.16;6210736;23;20103;-73
2022/12/31 01:16:13;;;;;;;2.90;0.93;;;;;;;6.13;76.85;100128.75;6211749;23;20021;-73
2022/12/31 01:18:40;;;;;;;1.20;1.00;;;;;;;6.14;77.08;100129.59;6211151;23;20472;-72
2022/12/31 01:21:09;;;;;;;1.92;1.10;;;;;;;6.37;76.48;100119.44;6211147;23;20027;-72
2022/12/31 01:23:38;;;;;;;1.00;0.70;;;;;;;6.28;76.95;100114.97;6211627;23;20021;-74
2022/12/31 01:26:08;;;;;;;1.02;0.80;;;;;;;6.44;76.52;100118.69;6210408;23;20026;-74
2022/12/31 01:28:35;;;;;;;1.30;0.80;;;;;;;6.46;76.19;100123.88;6219444;23;20130;-74
2022/12/31 01:31:07;;;;;;;1.23;0.80;;;;;;;6.45;76.98;100130.19;6210990;23;20323;-75
2022/12/31 01:33:34;;;;;;;;;;;;;;;6.39;76.29;100117.44;6211267;23;20013;-73
2022/12/31 01:36:02;;;;;;;1.30;0.70;;;;;;;6.60;76.66;100128.72;6211517;23;19916;-73
2022/12/31 01:38:29;;;;;;;1.67;0.70;;;;;;;6.64;76.61;100129.25;6210039;23;20022;-74
2022/12/31 01:40:55;;;;;;;1.00;0.63;;;;;;;6.61;76.54;100130.38;6211200;23;20095;-72
2022/12/31 01:43:22;;;;;;;2.55;0.80;;;;;;;6.48;76.89;100137.88;6211921;23;20052;-74
2022/12/31 01:45:52;;;;;;;1.00;0.75;;;;;;;6.72;76.43;100145.31;6210982;23;20441;-74
2022/12/31 01:48:24;;;;;;;0.95;0.70;;;;;;;6.73;76.61;100148.81;6209235;23;20020;-74
2022/12/31 01:50:52;;;;;;;2.97;0.60;;;;;;;6.92;76.08;100156.72;6210902;23;20031;-73
2022/12/31 01:53:19;;;;;;;0.90;0.68;;;;;;;6.82;76.84;100150.59;6211322;23;20497;-74
2022/12/31 01:55:53;;;;;;;1.05;0.55;;;;;;;6.98;76.68;100145.47;6209871;23;20107;-74
2022/12/31 01:58:24;;;;;;;1.30;0.57;;;;;;;7.04;76.19;100149.31;6211318;23;20092;-74
2022/12/31 02:00:51;;;;;;;;;;;;;;;7.12;76.34;100146.75;6210180;23;20028;-74
2022/12/31 02:03:20;;;;;;;0.30;0.22;;;;;;;7.12;76.24;100147.59;6209674;23;19923;-75
2022/12/31 02:09:29;;;;;;;0.98;0.45;;;;;;;7.15;76.31;100151.75;6209947;23;20023;-74
2022/12/31 02:11:55;;;;;;;0.63;0.40;;;;;;;7.37;75.96;100147.81;6209964;23;20024;-74
2022/12/31 02:14:27;;;;;;;0.85;0.43;;;;;;;7.18;76.45;100156.81;6211498;23;20033;-74
2022/12/31 02:17:21;;;;;;;3.58;0.75;;;;;;;7.16;76.71;100156.97;6210927;23;20023;-75
2022/12/31 02:20:06;;;;;;;2.60;0.82;;;;;;;7.25;76.64;100165.88;6209941;23;20099;-74
2022/12/31 02:22:48;;;;;;;2.55;0.65;;;;;;;7.21;76.93;100164.50;6210427;23;20020;-73
2022/12/31 02:25:51;;;;;;;2.58;0.50;;;;;;;7.30;76.90;100166.28;6210848;23;20016;-74
2022/12/31 02:28:59;;;;;;;2.33;0.20;;;;;;;7.17;76.85;100161.31;6190197;23;20023;-73
2022/12/31 02:31:33;;;;;;;0.93;0.65;;;;;;;7.29;76.93;100159.25;6210358;23;20044;-74
2022/12/31 02:34:14;;;;;;;2.70;0.40;;;;;;;7.32;76.22;100158.94;6211567;23;20017;-73
2022/12/31 02:36:45;;;;;;;1.30;0.40;;;;;;;7.35;76.55;100144.44;6205886;23;20023;-74
2022/12/31 02:39:13;;;;;;;0.70;0.40;;;;;;;7.34;76.51;100145.44;6210066;23;20020;-74
2022/12/31 02:41:49;;;;;;;1.15;0.47;;;;;;;7.38;76.29;100150.31;6211404;23;20027;-74
2022/12/31 02:44:23;;;;;;;1.60;0.45;;;;;;;7.36;76.39;100149.66;6210650;23;20414;-73
2022/12/31 02:46:56;;;;;;;0.60;0.50;;;;;;;7.38;76.26;100152.16;6211383;23;20024;-74
2022/12/31 02:49:32;;;;;;;0.57;0.40;;;;;;;7.35;76.22;100150.63;6210669;23;20074;-74
2022/12/31 02:52:08;;;;;;;0.90;0.55;;;;;;;7.35;76.64;100152.47;6198696;23;20044;-74
2022/12/31 02:54:50;;;;;;;1.25;0.70;;;;;;;7.31;76.47;100151.09;6212013;23;20040;-73
2022/12/31 02:57:29;;;;;;;1.13;0.50;;;;;;;7.34;76.93;100151.63;6210588;23;20438;-74
2022/12/31 03:02:53;;;;;;;1.40;0.40;;;;;;;7.43;76.54;100157.88;6210965;23;20063;-74
2022/12/31 03:05:22;;;;;;;0.43;0.30;;;;;;;7.32;76.47;100148.25;6211409;23;20020;-74
2022/12/31 03:07:49;;;;;;;1.02;0.68;;;;;;;7.42;76.78;100146.34;6210293;23;20355;-73
2022/12/31 03:10:16;;;;;;;1.27;0.73;;;;;;;7.32;76.90;100142.09;6213484;23;20035;-74
2022/12/31 03:12:46;;;;;;;1.17;0.40;;;;;;;7.42;76.48;100148.19;6212619;23;20056;-74
2022/12/31 03:15:23;;;;;;;0.57;0.40;;;;;;;7.57;76.01;100146.66;6213106;23;20165;-74
2022/12/31 03:17:51;;;;;;;0.75;0.50;;;;;;;7.45;76.28;100147.03;6213100;23;20103;-74
2022/12/31 03:23:10;;;;;;;0.47;0.40;;;;;;;7.53;75.50;100147.94;6210677;23;20046;-73
2022/12/31 03:25:40;;;;;;;0.60;0.40;;;;;;;7.46;75.89;100149.53;6212052;23;20031;-74
2022/12/31 03:28:09;;;;;;;0.80;0.40;;;;;;;7.52;75.75;100148.09;6210358;23;20028;-73
2022/12/31 03:30:42;;;;;;;0.60;0.30;;;;;;;7.39;76.16;100143.97;6211913;23;20091;-74
2022/12/31 03:33:09;;;;;;;0.90;0.55;;;;;;;7.42;75.88;100137.50;6204141;23;20016;-74
2022/12/31 03:35:37;;;;;;;1.27;0.52;;;;;;;7.28;76.07;100141.56;6210964;23;20016;-73
2022/12/31 03:38:04;;;;;;;0.68;0.45;;;;;;;7.45;76.29;100136.38;6210040;23;20075;-73
2022/12/31 03:40:31;;;;;;;0.60;0.50;;;;;;;7.53;76.27;100139.94;6224164;23;20020;-73
2022/12/31 03:42:58;;;;;;;2.97;0.70;;;;;;;7.45;76.37;100142.53;6211768;23;20031;-72
2022/12/31 03:45:24;;;;;;;0.73;0.38;;;;;;;7.45;76.44;100136.38;6210854;23;20399;-74
2022/12/31 03:47:51;;;;;;;0.75;0.40;;;;;;;7.59;75.90;100127.81;6210955;23;20388;-74
2022/12/31 03:50:18;;;;;;;0.65;0.50;;;;;;;7.53;75.62;100118.56;6210268;23;20026;-72
2022/12/31 03:52:45;;;;;;;0.52;0.50;;;;;;;7.41;75.77;100126.00;6211199;23;20115;-73
2022/12/31 03:55:12;;;;;;;1.48;0.70;;;;;;;7.46;76.36;100114.84;6210810;23;20096;-74
2022/12/31 03:57:39;;;;;;;0.70;0.40;;;;;;;7.51;75.83;100104.56;6210680;23;20023;-74
2022/12/31 04:00:08;;;;;;;0.65;0.40;;;;;;;7.54;75.26;100104.25;6210724;23;20020;-73
2022/12/31 04:02:35;;;;;;;0.95;0.70;;;;;;;7.60;75.81;100097.44;6209246;23;20016;-71
2022/12/31 04:05:02;;;;;;;0.88;0.40;;;;;;;7.66;75.96;100110.16;6211918;23;20017;-73
2022/12/31 04:07:29;;;;;;;1.95;0.52;;;;;;;7.77;75.74;100109.06;6212007;23;20044;-73
2022/12/31 04:09:55;;;;;;;1.40;0.60;;;;;;;7.73;75.38;100108.53;6210174;23;20025;-74
2022/12/31 04:12:22;;;;;;;1.77;0.50;;;;;;;7.70;75.36;100105.34;6211461;23;20516;-73
2022/12/31 04:14:49;;;;;;;0.60;0.60;;;;;;;7.75;75.55;100119.91;6211508;23;20028;-73
2022/12/31 04:17:16;;;;;;;0.90;0.30;;;;;;;7.84;75.38;100110.97;6210702;23;20016;-74
2022/12/31 04:19:42;;;;;;;3.88;0.40;;;;;;;7.85;75.14;100109.19;6211093;23;20497;-73
2022/12/31 04:22:09;;;;;;;0.40;0.40;;;;;;;7.85;75.20;100114.50;6210412;23;20020;-74
2022/12/31 04:24:35;;;;;;;1.35;0.50;;;;;;;7.91;75.40;100100.50;6211748;23;20445;-71
2022/12/31 04:27:02;;;;;;;0.73;0.40;;;;;;;7.98;74.85;100106.06;6212270;23;20024;-73
2022/12/31 04:29:34;;;;;;;2.50;0.30;;;;;;;7.93;75.33;100106.53;6211186;23;20303;-74
2022/12/31 04:32:00;;;;;;;0.40;0.28;;;;;;;8.03;74.82;100111.78;6210102;23;20589;-74
2022/12/31 04:34:27;;;;;;;0.32;0.30;;;;;;;7.90;75.59;100120.22;6209944;23;20017;-74
2022/12/31 04:36:54;;;;;;;0.63;0.40;;;;;;;8.02;74.91;100108.28;6210807;23;20126;-74
2022/12/31 04:39:20;;;;;;;0.47;0.40;;;;;;;8.03;74.86;100109.94;6210652;23;20012;-73
2022/12/31 04:41:47;;;;;;;2.33;0.30;;;;;;;8.06;75.03;100098.94;6209615;23;20209;-74
2022/12/31 04:44:14;;;;;;;0.80;0.50;;;;;;;8.06;75.32;100106.94;6210568;23;20067;-72
2022/12/31 04:46:40;;;;;;;1.55;0.55;;;;;;;7.99;75.49;100097.91;6204559;23;20020;-71
2022/12/31 04:49:07;;;;;;;1.00;0.43;;;;;;;8.09;75.71;100103.97;6209410;23;20361;-73
2022/12/31 04:51:34;;;;;;;0.57;0.40;;;;;;;8.16;75.55;100087.28;6211340;23;20041;-73
2022/12/31 04:54:01;;;;;;;0.40;0.32;;;;;;;8.16;75.39;100076.59;6209320;23;20024;-73
2022/12/31 04:56:28;;;;;;;0.30;0.30;;;;;;;8.03;76.06;100067.19;6209645;23;20096;-73
2022/12/31 04:58:54;;;;;;;2.33;0.47;;;;;;;8.16;75.66;100057.88;6211217;23;20026;-73
2022/12/31 05:01:21;;;;;;;0.30;0.30;;;;;;;8.15;75.71;100070.41;6210329;23;20135;-73
2022/12/31 05:03:48;;;;;;;0.20;0.20;;;;;;;8.10;76.09;100070.91;6211038;23;20044;-73
2022/12/31 05:06:20;;;;;;;0.30;0.30;;;;;;;8.14;76.17;100058.88;6211702;23;20016;-74
2022/12/31 05:08:47;;;;;;;;;;;;;;;8.15;75.86;100065.06;6211554;23;20403;-75
2022/12/31 05:11:14;;;;;;;1.70;0.55;;;;;;;8.23;75.60;100065.13;6209476;23;19994;-72
2022/12/31 05:13:41;;;;;;;1.10;0.40;;;;;;;8.30;75.48;100062.66;6211224;23;20023;-73
2022/12/31 05:16:08;;;;;;;0.50;0.32;;;;;;;8.27;75.84;100062.97;6208232;23;20025;-74
2022/12/31 05:18:36;;;;;;;0.45;0.30;;;;;;;8.27;75.86;100074.50;6211240;23;20472;-74
2022/12/31 05:21:03;;;;;;;0.35;0.35;;;;;;;8.34;75.93;100072.00;6210587;23;20047;-72
2022/12/31 05:23:30;;;;;;;0.68;0.38;;;;;;;8.39;75.83;100075.00;6209714;23;20373;-73
2022/12/31 05:25:58;;;;;;;2.53;0.57;;;;;;;8.48;75.55;100082.06;6208970;23;20059;-73
2022/12/31 05:28:25;;;;;;;4.70;0.50;;;;;;;8.58;76.17;100080.09;6205934;23;20017;-74
2022/12/31 05:30:52;;;;;;;0.70;0.35;;;;;;;8.38;77.54;100076.84;6210934;23;20074;-73
2022/12/31 05:33:19;;;;;;;3.25;0.75;;;;;;;8.42;78.98;100082.72;6208812;23;20016;-74
2022/12/31 05:35:46;;;;;;;4.28;0.70;;;;;;;8.19;80.00;100077.09;6208846;23;20103;-74
2022/12/31 05:38:12;;;;;;;1.45;1.13;;;;;;;8.16;81.07;100074.78;6207691;23;20036;-74
2022/12/31 05:40:39;;;;;;;1.85;1.10;;;;;;;8.23;81.77;100057.09;6209295;23;20024;-72
2022/12/31 05:43:05;;;;;;;3.15;1.70;;;;;;;8.40;82.07;100041.97;6212143;23;20050;-72
2022/12/31 05:45:32;;;;;;;2.95;1.25;;;;;;;8.19;82.62;100023.66;6209948;23;20047;-73
2022/12/31 05:47:59;;;;;;;2.00;0.80;;;;;;;8.14;83.22;100023.31;6211156;23;20110;-72
2022/12/31 05:50:25;;;;;;;1.40;0.70;;;;;;;8.21;83.46;100023.53;6207444;23;20023;-72
2022/12/31 05:52:52;;;;;;;1.95;0.77;;;;;;;8.24;83.44;100015.19;6209871;23;20055;-72
2022/12/31 05:55:18;;;;;;;3.72;1.00;;;;;;;8.33;82.88;100014.19;6208984;23;20017;-73
2022/12/31 05:57:45;;;;;;;1.52;1.10;;;;;;;8.26;83.17;100018.50;6210201;23;20024;-73
2022/12/31 06:00:12;;;;;;;1.30;0.80;;;;;;;8.23;83.66;100016.19;6197444;23;20020;-73
2022/12/31 06:02:39;;;;;;;4.80;1.00;;;;;;;8.37;83.77;100004.88;6183276;23;20017;-72
2022/12/31 06:05:06;;;;;;;2.88;0.80;;;;;;;8.27;83.65;99997.00;6181060;23;20024;-72
2022/12/31 06:07:32;;;;;;;3.00;0.70;;;;;;;8.11;83.87;99992.41;6181221;23;20447;-72
2022/12/31 06:09:59;;;;;;;2.72;0.80;;;;;;;8.23;84.13;99998.31;6180345;23;20124;-73
2022/12/31 06:12:25;;;;;;;4.50;1.55;;;;;;;8.13;83.41;99998.44;6178956;23;20524;-73
2022/12/31 06:14:52;;;;;;;4.72;0.73;;;;;;;8.33;83.45;99996.34;6169313;23;20017;-72
2022/12/31 06:17:19;;;;;;;1.52;0.40;;;;;;;8.16;83.34;99983.06;6179882;23;20450;-72
2022/12/31 06:19:46;;;;;;;1.70;0.50;;;;;;;8.44;82.52;99995.19;6181314;23;20104;-73
2022/12/31 06:22:12;;;;;;;1.08;0.60;;;;;;;8.31;82.93;99990.31;6180800;23;20485;-73
2022/12/31 06:24:39;;;;;;;2.10;0.63;;;;;;;8.57;82.27;99992.88;6181080;23;20027;-73
2022/12/31 06:27:06;;;;;;;1.65;0.52;;;;;;;8.41;82.00;99994.69;6182142;23;20021;-72
2022/12/31 06:29:32;;;;;;;1.17;0.60;;;;;;;8.57;81.98;99994.69;6181225;23;20045;-74
2022/12/31 06:31:59;;;;;;;0.40;0.40;;;;;;;8.51;81.85;99990.84;6181022;23;20304;-72
2022/12/31 06:34:25;;;;;;;1.98;0.50;;;;;;;8.51;82.19;100000.72;6180586;23;20446;-73
2022/12/31 06:36:52;;;;;;;2.65;0.60;;;;;;;8.55;81.43;99997.53;6180467;23;20036;-73
2022/12/31 06:39:18;;;;;;;0.82;0.30;;;;;;;8.70;81.42;100005.75;6180296;23;20021;-72
2022/12/31 06:41:45;;;;;;;0.40;0.40;;;;;;;8.86;80.62;99991.56;6180832;23;20459;-73
2022/12/31 06:44:13;;;;;;;1.55;0.50;;;;;;;8.72;80.83;100013.63;6183694;23;20021;-72
2022/12/31 06:46:39;;;;;;;1.25;0.50;;;;;;;8.82;80.53;100000.94;6180847;23;20044;-73
2022/12/31 06:49:06;;;;;;;1.25;0.80;;;;;;;8.85;80.63;100004.09;6182028;23;20032;-73
2022/12/31 06:51:33;;;;;;;1.70;0.68;;;;;;;8.98;80.18;99998.22;6181024;23;20013;-74
2022/12/31 06:53:59;;;;;;;0.65;0.40;;;;;;;8.88;80.16;99991.38;6182428;23;20020;-73
2022/12/31 06:56:28;;;;;;;2.10;0.43;;;;;;;8.82;80.47;99991.06;6182770;23;20028;-74
2022/12/31 06:59:00;;;;;;;1.30;0.65;;;;;;;8.87;80.51;99984.38;6182503;23;20104;-74
2022/12/31 07:01:56;;;;;;;0.52;0.50;;;;;;;8.98;79.81;99986.69;6183775;23;20047;-74
2022/12/31 07:04:35;;;;;;;2.17;0.50;;;;;;;9.19;79.09;99978.97;6211989;23;20031;-72
2022/12/31 07:07:14;;;;;;;0.75;0.52;;;;;;;9.16;79.09;99989.19;6212711;23;20410;-73
2022/12/31 07:09:47;;;;;;;0.57;0.38;;;;;;;9.21;78.93;99976.16;6212014;23;20021;-73
2022/12/31 07:12:52;;;;;;;1.48;0.47;;;;;;;9.31;78.27;99992.91;6213110;23;20394;-73
2022/12/31 07:15:34;;;;;;;1.75;0.30;;;;;;;9.39;78.13;99974.13;6210171;23;20020;-73
2022/12/31 07:18:19;;;;;;;0.55;0.40;;;;;;;9.43;78.02;99972.78;6212450;23;20108;-73
2022/12/31 07:20:46;;;;;;;2.22;0.60;;;;;;;9.56;77.30;99986.47;6213367;23;20502;-73
2022/12/31 07:23:13;;;;;;;0.73;0.30;;;;;;;9.49;77.50;99985.50;6211295;23;20023;-73
2022/12/31 07:25:50;;;;;;;0.88;0.47;;;;;;;9.78;76.34;99976.84;6211626;23;20103;-74
2022/12/31 07:29:03;;;;;;;0.50;0.30;;;;;;;9.78;76.29;99981.38;6201420;23;20075;-73
2022/12/31 07:31:41;;;;;;;2.58;0.40;;;;;;;9.81;76.00;99983.72;6157257;23;20020;-73
2022/12/31 07:34:24;;;;;;;0.30;0.30;;;;;;;9.79;75.94;99988.44;6211887;23;20104;-73
2022/12/31 07:37:06;;;;;;;2.15;0.52;;;;;;;9.84;76.08;99991.41;6211980;23;20024;-71
2022/12/31 07:40:10;;;;;;;3.95;1.48;;;;;;;9.92;75.55;99977.97;6212452;23;20013;-73
2022/12/31 07:42:39;;;;;;;7.65;2.70;;;;;;;9.92;75.67;99985.19;6211053;23;20041;-74
2022/12/31 07:45:15;;;;;;;5.63;2.42;;;;;;;9.94;75.47;99983.16;6211412;23;20024;-72
2022/12/31 07:47:44;;;;;;;3.35;1.10;;;;;;;9.90;75.31;99984.53;6210999;23;20096;-74
2022/12/31 07:50:18;;;;;;;2.63;1.65;;;;;;;9.95;75.25;99990.19;6211688;23;21535;-73
2022/12/31 07:52:45;;;;;;;5.78;2.08;;;;;;;9.96;75.26;99990.03;6212631;23;20025;-74
2022/12/31 07:55:11;;;;;;;2.35;1.10;;;;;;;10.06;74.69;99999.69;6211339;23;20146;-73
2022/12/31 07:58:03;;;;;;;1.83;0.70;;;;;;;10.07;75.04;99993.34;6212187;23;20108;-73
2022/12/31 08:00:30;;;;;;;3.17;1.20;;;;;;;10.13;74.67;100014.06;6212157;23;20016;-74
2022/12/31 08:03:28;;;;;;;2.25;1.05;;;;;;;10.15;74.92;100004.84;6209808;23;20353;-74
2022/12/31 08:06:06;;;;;;;3.60;1.75;;;;;;;10.30;74.07;100010.28;6210672;23;20115;-73
2022/12/31 08:08:51;;;;;;;5.22;0.88;;;;;;;10.16;74.25;100013.72;6211364;23;20021;-75
2022/12/31 08:11:54;;;;;;;3.63;1.00;;;;;;;10.28;74.23;100006.97;6211779;23;20334;-74
2022/12/31 08:14:20;;;;;;;3.08;1.10;;;;;;;10.40;73.80;100015.44;6210672;23;20044;-73
2022/12/31 08:16:47;;;;;;;2.35;1.27;;;;;;;10.25;74.30;100008.13;6211792;23;20100;-74
2022/12/31 08:19:24;;;;;;;2.53;1.50;;;;;;;10.39;74.12;100011.09;6212256;23;20457;-74
2022/12/31 08:21:58;;;;;;;1.17;0.68;;;;;;;10.32;73.89;100012.81;6209923;23;20417;-74
2022/12/31 08:24:52;;;;;;;1.38;0.73;;;;;;;10.44;73.56;100016.75;6210705;23;20031;-73
2022/12/31 08:27:33;;;;;;;4.72;0.80;;;;;;;10.39;73.65;100021.81;6210334;23;20358;-73
2022/12/31 08:30:15;;;;;;;1.58;0.77;;;;;;;10.35;73.45;100025.88;6211112;23;20446;-73
2022/12/31 08:33:40;;;;;;;1.80;0.70;;;;;;;10.58;73.00;100018.72;6211691;23;20020;-75
2022/12/31 08:36:09;;;;;;;0.68;0.43;;;;;;;10.59;73.08;100006.16;6104976;23;20392;-73
2022/12/31 08:38:41;;;;;;;1.65;0.95;;;;;;;10.66;72.64;100013.28;6120729;23;20022;-73
2022/12/31 08:41:32;;;;;;;3.47;0.80;;;;;;;10.62;72.65;100020.03;6120052;23;20452;-74
2022/12/31 08:44:08;;;;;;;5.13;0.95;;;;;;;10.78;72.01;100019.06;6119616;23;20030;-74
2022/12/31 08:46:52;;;;;;;1.58;0.73;;;;;;;10.77;72.03;100017.41;6118799;23;20030;-75
2022/12/31 08:49:19;;;;;;;1.88;0.80;;;;;;;10.78;72.10;100024.44;6120008;23;20104;-74
2022/12/31 08:51:46;;;;;;;6.72;0.70;;;;;;;10.80;71.91;100016.22;6119286;23;20025;-78
2022/12/31 08:54:13;;;;;;;2.45;0.80;;;;;;;10.94;71.67;100023.50;6118969;23;20224;-75
2022/12/31 08:56:59;;;;;;;1.30;0.80;;;;;;;10.99;71.40;100026.47;6117952;23;20032;-74
2022/12/31 08:59:53;;;;;;;2.63;0.65;;;;;;;10.88;71.05;100035.78;6118039;23;20042;-73
2022/12/31 09:02:44;;;;;;;0.68;0.60;;;;;;;10.85;71.50;100030.75;6120216;23;20026;-75
2022/12/31 09:05:51;;;;;;;0.52;0.40;;;;;;;10.94;71.38;100040.44;6118399;23;20093;-74
2022/12/31 09:08:59;;;;;;;1.13;0.55;;;;;;;11.07;70.86;100050.56;6114823;23;20022;-75
2022/12/31 09:12:03;;;;;;;3.15;1.25;;;;;;;11.21;70.56;100043.59;6210006;23;20409;-72
2022/12/31 09:14:46;;;;;;;2.55;0.70;;;;;;;11.00;71.03;100044.25;6208842;23;20042;-74
2022/12/31 09:17:35;;;;;;;3.35;1.08;;;;;;;11.22;70.81;100037.19;6210873;22;20522;-73
2022/12/31 09:20:03;;;;;;;1.23;0.52;;;;;;;11.10;70.84;100041.31;6210074;23;20020;-75
2022/12/31 09:22:31;;;;;;;5.18;0.90;;;;;;;11.18;70.35;100044.78;6211560;23;20067;-75
2022/12/31 09:24:58;;;;;;;2.55;1.00;;;;;;;11.36;70.10;100044.44;6209908;23;20020;-74
2022/12/31 09:27:39;;;;;;;2.38;0.75;;;;;;;11.41;70.01;100036.69;6195514;23;20349;-73
2022/12/31 09:30:10;;;;;;;0.97;0.70;;;;;;;11.52;69.28;100040.78;6209591;23;20027;-74
2022/12/31 09:32:52;;;;;;;2.25;0.75;;;;;;;11.64;69.03;100019.66;6210787;23;20025;-74
2022/12/31 09:35:51;;;;;;;3.35;0.80;;;;;;;11.78;68.32;100028.78;6210070;23;20021;-73
2022/12/31 09:38:27;;;;;;;3.13;0.80;;;;;;;12.00;67.71;100029.69;6208492;23;20020;-75
2022/12/31 09:41:24;;;;;;;1.27;0.63;;;;;;;12.13;67.32;100027.19;6180419;23;20449;-72
2022/12/31 09:44:25;;;;;;;1.48;0.50;;;;;;;12.18;67.43;100024.78;6208245;23;20462;-74
2022/12/31 09:47:20;;;;;;;1.42;0.68;;;;;;;12.43;66.85;100019.06;6209395;23;20027;-76
2022/12/31 09:50:16;;;;;;;0.70;0.52;;;;;;;12.36;66.05;100008.22;6210245;23;20068;-74
2022/12/31 09:52:55;;;;;;;2.55;0.60;;;;;;;12.61;65.51;100012.22;6210476;23;20361;-73
2022/12/31 09:55:32;;;;;;;1.38;0.60;;;;;;;12.81;64.58;100009.78;6209347;23;20047;-74
2022/12/31 09:58:23;;;;;;;3.22;0.50;;;;;;;12.79;64.94;100003.75;6210314;23;20346;-73
2022/12/31 10:01:14;;;;;;;2.58;0.70;;;;;;;13.10;63.73;100007.94;6210612;23;20027;-74
2022/12/31 10:04:05;;;;;;;2.83;0.50;;;;;;;13.05;63.82;99999.63;6209335;23;20393;-74
2022/12/31 10:06:52;;;;;;;7.45;0.80;;;;;;;13.13;63.97;100009.44;6209520;23;20091;-73
2022/12/31 10:09:43;;;;;;;2.20;0.60;;;;;;;12.95;63.81;100001.81;6210950;23;20471;-73
2022/12/31 10:12:25;;;;;;;0.63;0.40;;;;;;;12.85;64.17;100019.13;6194158;23;20035;-74
2022/12/31 10:15:30;;;;;;;1.25;0.63;;;;;;;12.73;64.74;100004.50;6211206;23;20040;-75
2022/12/31 10:18:17;;;;;;;5.53;0.75;;;;;;;12.80;64.31;100015.34;6208544;23;20044;-74
2022/12/31 10:21:15;;;;;;;1.52;0.50;;;;;;;13.24;63.25;100017.81;6189814;23;20348;-74
2022/12/31 10:24:02;;;;;;;2.15;0.60;;;;;;;13.27;62.81;100020.13;6151942;23;20413;-77
2022/12/31 10:26:52;;;;;;;0.90;0.50;;;;;;;13.20;63.24;100032.69;6133845;23;20107;-73
2022/12/31 10:29:53;;;;;;;2.35;0.75;;;;;;;13.23;63.34;100031.47;6210410;23;20031;-76
2022/12/31 10:32:39;;;;;;;0.85;0.65;;;;;;;13.10;63.43;100045.66;6208983;23;20096;-74
2022/12/31 10:35:28;;;;;;;1.15;0.60;;;;;;;13.02;63.80;100033.16;6210052;23;20020;-75
2022/12/31 10:38:13;;;;;;;3.65;0.77;;;;;;;12.96;64.17;100033.94;6210776;23;20016;-74
2022/12/31 10:41:16;;;;;;;4.72;0.47;;;;;;;13.03;63.81;100053.66;6210882;23;20021;-75
2022/12/31 10:44:04;;;;;;;3.38;0.80;;;;;;;13.14;63.49;100060.41;6210744;23;20025;-74
2022/12/31 10:46:49;;;;;;;1.60;0.50;;;;;;;13.02;63.89;100076.25;6197595;23;20092;-75
2022/12/31 10:49:34;;;;;;;1.02;0.50;;;;;;;13.15;63.39;100072.84;6210264;23;20024;-76
2022/12/31 10:52:07;;;;;;;2.03;0.60;;;;;;;13.10;63.44;100075.28;6209767;23;20021;-75
2022/12/31 10:55:07;;;;;;;0.73;0.50;;;;;;;13.21;62.85;100085.53;6210689;23;20027;-75
2022/12/31 10:57:53;;;;;;;1.63;0.60;;;;;;;13.14;63.80;100087.31;6209790;23;20036;-74
2022/12/31 11:00:55;;;;;;;1.00;0.55;;;;;;;12.98;64.36;100087.59;6209478;23;20079;-72
2022/12/31 11:03:34;;;;;;;2.15;0.70;;;;;;;13.21;63.77;100093.59;6196819;23;20354;-74
2022/12/31 11:06:32;;;;;;;2.17;0.80;;;;;;;13.21;64.31;100090.91;6210152;23;20032;-73
2022/12/31 11:09:16;;;;;;;2.72;0.88;;;;;;;12.79;65.41;100111.41;6210004;23;20402;-71
2022/12/31 11:12:04;;;;;;;2.45;0.70;;;;;;;12.96;64.72;100095.03;6207440;23;20054;-74
2022/12/31 11:15:01;;;;;;;3.90;0.60;;;;;;;13.06;64.49;100104.44;6210110;23;20322;-73
2022/12/31 11:17:55;;;;;;;2.03;0.80;;;;;;;13.12;64.17;100116.31;6171945;23;20095;-74
2022/12/31 11:20:56;;;;;;;1.05;0.52;;;;;;;13.04;64.47;100109.22;6209894;23;20353;-76
2022/12/31 11:23:41;;;;;;;2.55;0.57;;;;;;;12.99;64.67;100111.63;6210717;23;20095;-75
2022/12/31 11:26:26;;;;;;;2.05;0.82;;;;;;;13.05;64.40;100100.09;6210812;23;20072;-75
2022/12/31 11:29:31;;;;;;;1.23;0.70;;;;;;;12.82;64.98;100100.25;6210982;23;20021;-75
2022/12/31 11:32:00;;;;;;;3.35;0.70;;;;;;;12.88;64.98;100102.19;6209638;23;20021;-75
2022/12/31 11:34:39;;;;;;;2.35;0.70;;;;;;;12.90;64.73;100101.16;6211916;23;20013;-74
2022/12/31 11:37:32;;;;;;;1.35;0.63;;;;;;;12.97;64.27;100099.38;6213105;23;20027;-73
2022/12/31 11:40:37;;;;;;;4.00;0.63;;;;;;;13.07;63.66;100081.03;6211825;23;20023;-70
2022/12/31 11:43:18;;;;;;;2.85;0.90;;;;;;;13.18;63.51;100083.25;6210808;23;20024;-73
2022/12/31 11:45:59;;;;;;;1.20;0.80;;;;;;;13.38;62.74;100071.78;6211409;23;20035;-74
2022/12/31 11:49:03;;;;;;;1.13;0.60;;;;;;;13.29;62.73;100063.88;6211854;23;20027;-76
2022/12/31 11:52:01;;;;;;;3.55;1.20;;;;;;;13.20;62.87;100072.28;6211452;23;20246;-73
2022/12/31 11:54:48;;;;;;;2.67;0.80;;;;;;;13.20;62.86;100075.78;6211020;23;20415;-73
2022/12/31 11:57:24;;;;;;;2.25;0.82;;;;;;;13.38;62.67;100075.31;6211720;23;20021;-74
2022/12/31 11:59:58;;;;;;;1.05;0.70;;;;;;;13.44;62.22;100060.25;6210439;23;20042;-75
2022/12/31 12:02:28;;;;;;;2.22;0.80;;;;;;;13.50;62.15;100059.47;6213014;23;20067;-74
2022/12/31 12:04:59;;;;;;;0.65;0.50;;;;;;;13.43;62.42;100063.97;6212607;23;20021;-74
2022/12/31 12:07:33;;;;;;;3.65;1.00;;;;;;;13.54;62.11;100060.75;6210381;23;20095;-74
2022/12/31 12:10:03;;;;;;;2.88;0.80;;;;;;;13.50;61.75;100065.69;6208852;23;20330;-72
2022/12/31 12:12:41;;;;;;;3.03;1.02;;;;;;;13.68;61.30;100062.50;6200301;23;20023;-71
2022/12/31 12:15:10;;;;;;;1.30;0.70;;;;;;;13.81;60.76;100062.63;6211289;23;20031;-74
2022/12/31 12:17:38;;;;;;;2.78;0.90;;;;;;;13.81;60.69;100080.69;6211729;23;20095;-75